createdAt,value
2023-05-03T00:00:59.010Z,99.75
2023-05-03T00:01:59.712Z,99.71
2023-05-03T00:02:59.821Z,99.85
2023-05-03T00:03:27.032Z,99.71
2023-05-03T00:04:59.869Z,99.71
2023-05-03T00:05:59.341Z,99.71
2023-05-03T00:06:59.869Z,99.91
2023-05-03T00:07:59.872Z,99.71
2023-05-03T00:08:26.985Z,99.99
2023-05-03T00:10:00.115Z,99.50
2023-05-03T00:10:59.415Z,99.66
2023-05-03T00:11:58.944Z,99.99
2023-05-03T00:12:27.008Z,99.91
2023-05-03T00:13:26.993Z,99.81
2023-05-03T00:14:26.965Z,99.91
2023-05-03T00:15:26.967Z,99.99
2023-05-03T00:16:26.979Z,99.99
2023-05-03T00:17:26.973Z,99.65
2023-05-03T00:18:26.964Z,99.96
2023-05-03T00:19:31.561Z,99.85
2023-05-03T00:20:28.969Z,99.96
2023-05-03T00:21:26.924Z,99.33
2023-05-03T00:22:26.929Z,99.90
2023-05-03T00:23:26.907Z,99.48
2023-05-03T00:24:26.905Z,99.99
2023-05-03T00:25:26.883Z,99.99
2023-05-03T00:26:26.882Z,99.99
2023-05-03T00:27:26.898Z,99.99
2023-05-03T00:28:26.905Z,99.74
2023-05-03T00:29:26.847Z,99.99
2023-05-03T00:30:26.877Z,99.74
2023-05-03T00:31:26.890Z,99.99
2023-05-03T00:32:26.868Z,99.99
2023-05-03T00:33:26.873Z,99.99
2023-05-03T00:34:26.810Z,99.99
2023-05-03T00:35:26.814Z,99.99
2023-05-03T00:36:26.812Z,99.99
2023-05-03T00:37:26.798Z,99.99
2023-05-03T00:38:26.814Z,99.99
2023-05-03T00:39:26.816Z,99.99
2023-05-03T00:40:26.815Z,99.99
2023-05-03T00:41:26.789Z,99.99
2023-05-03T00:42:26.764Z,99.99
2023-05-03T00:43:26.750Z,99.99
2023-05-03T00:44:26.766Z,99.99
2023-05-03T00:45:26.748Z,99.99
2023-05-03T00:46:26.737Z,99.99
2023-05-03T00:47:26.751Z,99.99
2023-05-03T00:48:26.748Z,99.99
2023-05-03T00:49:26.745Z,99.99
2023-05-03T00:50:26.714Z,99.99
2023-05-03T00:51:26.700Z,99.99
2023-05-03T00:52:26.707Z,99.99
2023-05-03T00:53:26.672Z,99.99
2023-05-03T00:54:26.670Z,99.99
2023-05-03T00:55:26.678Z,99.99
2023-05-03T00:56:26.658Z,99.99
2023-05-03T00:57:26.659Z,99.99
2023-05-03T00:58:26.682Z,99.99
2023-05-03T00:59:26.651Z,99.99
2023-05-03T01:00:26.664Z,99.99
2023-05-03T01:01:26.671Z,99.99
2023-05-03T01:02:26.690Z,99.99
2023-05-03T01:03:26.794Z,99.99
2023-05-03T01:04:26.619Z,99.99
2023-05-03T01:05:26.617Z,99.99
2023-05-03T01:06:26.675Z,99.99
2023-05-03T01:07:26.598Z,99.99
2023-05-03T01:08:26.611Z,99.99
2023-05-03T01:09:26.585Z,99.99
2023-05-03T01:10:26.553Z,99.99
2023-05-03T01:11:28.548Z,99.99
2023-05-03T01:12:26.579Z,99.99
2023-05-03T01:13:26.549Z,99.99
2023-05-03T01:14:26.536Z,99.99
2023-05-03T01:15:26.563Z,99.99
2023-05-03T01:16:26.536Z,99.99
2023-05-03T01:17:27.566Z,99.99
2023-05-03T01:18:26.505Z,99.99
2023-05-03T01:19:26.510Z,99.99
2023-05-03T01:20:26.492Z,99.99
2023-05-03T01:21:26.476Z,99.99
2023-05-03T01:22:26.489Z,99.99
2023-05-03T01:23:26.475Z,99.99
2023-05-03T01:24:26.503Z,99.99
2023-05-03T01:25:26.456Z,99.99
2023-05-03T01:26:26.438Z,99.99
2023-05-03T01:27:26.471Z,99.99
2023-05-03T01:28:26.471Z,99.99
2023-05-03T01:29:26.412Z,99.99
2023-05-03T01:30:26.422Z,99.99
2023-05-03T01:31:26.512Z,99.99
2023-05-03T01:32:26.447Z,99.99
2023-05-03T01:33:26.378Z,99.99
2023-05-03T01:34:26.386Z,99.99
2023-05-03T01:35:26.362Z,99.99
2023-05-03T01:36:26.350Z,99.99
2023-05-03T01:37:26.364Z,99.99
2023-05-03T01:38:26.360Z,99.99
2023-05-03T01:39:26.339Z,99.99
2023-05-03T01:40:26.312Z,99.99
2023-05-03T01:41:26.319Z,99.99
2023-05-03T01:42:26.330Z,99.99
2023-05-03T01:43:26.346Z,99.99
2023-05-03T01:44:26.331Z,99.99
2023-05-03T01:45:26.297Z,99.99
2023-05-03T01:46:26.413Z,99.99
2023-05-03T01:47:26.302Z,99.99
2023-05-03T01:48:26.280Z,99.99
2023-05-03T01:49:26.298Z,99.99
2023-05-03T01:50:26.279Z,99.99
2023-05-03T01:51:26.294Z,99.99
2023-05-03T01:52:26.238Z,99.99
2023-05-03T01:53:26.225Z,99.99
2023-05-03T01:54:27.294Z,99.99
2023-05-03T01:55:26.211Z,99.99
2023-05-03T01:56:26.219Z,99.99
2023-05-03T01:57:26.220Z,99.99
2023-05-03T01:58:26.210Z,99.99
2023-05-03T01:59:26.216Z,99.99
2023-05-03T02:00:26.211Z,99.99
2023-05-03T02:01:26.197Z,99.99
2023-05-03T02:02:26.217Z,99.99
2023-05-03T02:03:26.156Z,99.99
2023-05-03T02:04:26.209Z,99.99
2023-05-03T02:05:26.173Z,99.99
2023-05-03T02:06:26.253Z,99.99
2023-05-03T02:07:26.155Z,99.99
2023-05-03T02:08:26.112Z,99.99
2023-05-03T02:09:26.119Z,99.99
2023-05-03T02:10:26.104Z,99.99
2023-05-03T02:11:26.086Z,99.99
2023-05-03T02:12:26.108Z,99.99
2023-05-03T02:13:26.069Z,99.99
2023-05-03T02:14:26.060Z,99.99
2023-05-03T02:15:26.070Z,99.99
2023-05-03T02:16:26.096Z,99.99
2023-05-03T02:17:26.093Z,99.99
2023-05-03T02:18:26.059Z,99.99
2023-05-03T02:19:26.040Z,99.99
2023-05-03T02:20:26.009Z,99.99
2023-05-03T02:21:26.056Z,99.99
2023-05-03T02:22:26.022Z,99.99
2023-05-03T02:23:25.997Z,99.99
2023-05-03T02:24:26.004Z,99.99
2023-05-03T02:25:27.458Z,99.99
2023-05-03T02:26:25.990Z,99.99
2023-05-03T02:27:26.003Z,99.99
2023-05-03T02:28:25.957Z,99.99
2023-05-03T02:29:25.942Z,99.99
2023-05-03T02:30:25.965Z,99.99
2023-05-03T02:31:26.029Z,99.99
2023-05-03T02:32:25.987Z,99.99
2023-05-03T02:33:25.904Z,99.99
2023-05-03T02:34:25.952Z,99.99
2023-05-03T02:35:25.909Z,99.99
2023-05-03T02:36:25.899Z,99.99
2023-05-03T02:37:25.901Z,99.99
2023-05-03T02:38:25.912Z,99.99
2023-05-03T02:39:25.891Z,99.99
2023-05-03T02:40:25.845Z,99.99
2023-05-03T02:41:25.838Z,99.99
2023-05-03T02:42:25.864Z,99.99
2023-05-03T02:43:25.842Z,99.99
2023-05-03T02:44:25.857Z,99.99
2023-05-03T02:45:25.829Z,99.99
2023-05-03T02:46:25.875Z,99.99
2023-05-03T02:47:26.646Z,99.99
2023-05-03T02:48:57.751Z,99.99
2023-05-03T02:49:25.823Z,99.99
2023-05-03T02:50:25.778Z,99.99
2023-05-03T02:51:25.774Z,99.99
2023-05-03T02:52:25.770Z,99.99
2023-05-03T02:53:25.755Z,99.99
2023-05-03T02:54:25.774Z,99.99
2023-05-03T02:55:25.736Z,99.99
2023-05-03T02:56:25.748Z,99.99
2023-05-03T02:57:25.769Z,99.99
2023-05-03T02:58:25.756Z,99.99
2023-05-03T02:59:26.630Z,99.99
2023-05-03T03:00:25.756Z,99.99
2023-05-03T03:01:25.728Z,99.99
2023-05-03T03:02:25.753Z,99.99
2023-05-03T03:03:25.833Z,99.99
2023-05-03T03:04:25.668Z,99.99
2023-05-03T03:05:25.675Z,99.99
2023-05-03T03:06:25.720Z,99.99
2023-05-03T03:07:25.659Z,99.99
2023-05-03T03:08:26.665Z,99.99
2023-05-03T03:09:58.493Z,99.99
2023-05-03T03:10:25.663Z,99.99
2023-05-03T03:11:25.619Z,99.99
2023-05-03T03:12:25.607Z,99.99
2023-05-03T03:13:25.596Z,99.99
2023-05-03T03:14:25.605Z,99.99
2023-05-03T03:15:25.587Z,99.99
2023-05-03T03:16:25.648Z,99.99
2023-05-03T03:17:26.130Z,99.99
2023-05-03T03:18:25.553Z,99.99
2023-05-03T03:19:25.566Z,99.99
2023-05-03T03:20:25.588Z,99.99
2023-05-03T03:21:26.105Z,99.99
2023-05-03T03:22:25.579Z,99.99
2023-05-03T03:23:25.530Z,99.99
2023-05-03T03:24:25.522Z,99.99
2023-05-03T03:25:25.529Z,99.99
2023-05-03T03:26:26.102Z,99.99
2023-05-03T03:27:25.520Z,99.99
2023-05-03T03:28:25.529Z,99.99
2023-05-03T03:29:25.538Z,99.99
2023-05-03T03:30:25.469Z,99.99
2023-05-03T03:31:57.524Z,99.99
2023-05-03T03:32:25.457Z,99.99
2023-05-03T03:33:25.558Z,99.99
2023-05-03T03:34:25.477Z,99.99
2023-05-03T03:35:25.486Z,99.99
2023-05-03T03:36:25.432Z,99.99
2023-05-03T03:37:25.503Z,99.99
2023-05-03T03:38:25.427Z,99.99
2023-05-03T03:39:25.453Z,99.99
2023-05-03T03:40:25.484Z,99.99
2023-05-03T03:41:26.145Z,99.99
2023-05-03T03:42:25.388Z,99.99
2023-05-03T03:43:26.151Z,99.99
2023-05-03T03:44:25.675Z,99.99
2023-05-03T03:45:25.381Z,99.99
2023-05-03T03:46:25.405Z,99.99
2023-05-03T04:02:36.200Z,99.99
2023-05-03T04:03:36.197Z,99.99
2023-05-03T04:04:36.179Z,99.99
2023-05-03T04:05:36.068Z,99.99
2023-05-03T04:06:36.112Z,99.99
2023-05-03T04:07:36.067Z,99.99
2023-05-03T04:08:37.191Z,99.99
2023-05-03T04:09:37.787Z,99.99
2023-05-03T04:10:37.183Z,99.99
2023-05-03T04:11:37.172Z,99.99
2023-05-03T04:12:37.167Z,99.99
2023-05-03T04:13:37.142Z,99.99
2023-05-03T04:14:37.192Z,99.99
2023-05-03T04:15:37.141Z,99.99
2023-05-03T04:16:37.148Z,99.99
2023-05-03T04:17:37.157Z,99.99
2023-05-03T04:18:37.132Z,99.99
2023-05-03T04:19:37.113Z,99.99
2023-05-03T04:20:37.122Z,99.99
2023-05-03T04:21:37.097Z,99.99
2023-05-03T04:22:37.101Z,99.99
2023-05-03T04:23:37.092Z,99.99
2023-05-03T04:24:37.060Z,99.99
2023-05-03T04:25:37.069Z,99.99
2023-05-03T04:26:37.060Z,99.99
2023-05-03T04:27:37.088Z,99.99
2023-05-03T04:28:37.040Z,99.99
2023-05-03T04:29:37.049Z,99.99
2023-05-03T04:30:37.078Z,99.52
2023-05-03T04:31:36.993Z,99.63
2023-05-03T04:32:37.091Z,98.75
2023-05-03T04:33:37.058Z,99.02
2023-05-03T04:34:37.010Z,97.62
2023-05-03T04:35:36.984Z,96.64
2023-05-03T04:36:36.958Z,96.76
2023-05-03T04:37:36.982Z,95.10
2023-05-03T04:38:36.986Z,94.54
2023-05-03T04:39:36.993Z,91.53
2023-05-03T04:40:36.937Z,91.33
2023-05-03T04:41:36.943Z,90.08
2023-05-03T04:42:36.985Z,89.73
2023-05-03T04:43:36.930Z,89.07
2023-05-03T04:44:36.923Z,89.54
2023-05-03T04:45:36.929Z,87.33
2023-05-03T04:46:37.022Z,86.98
2023-05-03T04:47:36.962Z,84.78
2023-05-03T04:48:36.885Z,85.94
2023-05-03T04:49:36.921Z,88.05
2023-05-03T04:50:36.882Z,87.99
2023-05-03T04:51:36.898Z,88.67
2023-05-03T04:52:36.844Z,88.63
2023-05-03T04:53:36.854Z,87.97
2023-05-03T04:54:36.853Z,86.10
2023-05-03T04:55:36.860Z,86.54
2023-05-03T04:56:36.836Z,85.61
2023-05-03T04:57:36.849Z,85.02
2023-05-03T04:58:36.887Z,84.05
2023-05-03T04:59:36.796Z,82.97
2023-05-03T05:00:36.824Z,84.13
2023-05-03T05:01:36.823Z,81.82
2023-05-03T05:02:36.837Z,81.31
2023-05-03T05:03:36.815Z,80.18
2023-05-03T05:04:36.759Z,80.62
2023-05-03T05:05:36.771Z,82.17
2023-05-03T05:06:36.784Z,81.66
2023-05-03T05:07:36.740Z,82.65
2023-05-03T05:08:36.717Z,81.37
2023-05-03T05:09:36.697Z,81.10
2023-05-03T05:10:36.729Z,80.76
2023-05-03T05:11:36.721Z,80.20
2023-05-03T05:12:36.704Z,79.44
2023-05-03T05:13:36.690Z,78.52
2023-05-03T05:14:36.688Z,78.58
2023-05-03T05:15:36.701Z,77.86
2023-05-03T05:16:36.833Z,78.00
2023-05-03T05:17:36.745Z,78.86
2023-05-03T05:18:36.713Z,79.97
2023-05-03T05:19:36.641Z,80.38
2023-05-03T05:20:36.611Z,80.48
2023-05-03T05:21:36.734Z,81.49
2023-05-03T05:22:36.645Z,81.24
2023-05-03T05:23:36.594Z,81.82
2023-05-03T05:24:36.584Z,80.62
2023-05-03T05:25:36.594Z,79.37
2023-05-03T05:26:36.589Z,77.92
2023-05-03T05:27:36.594Z,75.49
2023-05-03T05:28:36.580Z,74.98
2023-05-03T05:29:36.557Z,71.86
2023-05-03T05:30:36.560Z,71.93
2023-05-03T05:31:37.316Z,71.22
2023-05-03T05:32:36.769Z,70.84
2023-05-03T05:33:36.553Z,71.69
2023-05-03T05:34:43.902Z,71.86
2023-05-03T05:35:38.510Z,70.40
2023-05-03T05:36:36.514Z,70.64
2023-05-03T05:37:36.539Z,71.56
2023-05-03T05:38:36.532Z,71.11
2023-05-03T05:39:36.488Z,70.09
2023-05-03T05:40:36.492Z,71.76
2023-05-03T05:41:36.486Z,73.74
2023-05-03T05:42:36.463Z,75.01
2023-05-03T05:43:36.444Z,75.49
2023-05-03T05:44:36.448Z,76.38
2023-05-03T05:45:36.417Z,76.59
2023-05-03T05:46:36.461Z,78.69
2023-05-03T05:47:36.446Z,78.58
2023-05-03T05:48:36.437Z,79.61
2023-05-03T05:49:36.414Z,79.75
2023-05-03T05:50:36.393Z,77.72
2023-05-03T05:51:36.417Z,74.77
2023-05-03T05:52:36.385Z,75.63
2023-05-03T05:53:36.383Z,76.04
2023-05-03T05:54:36.357Z,76.04
2023-05-03T05:55:36.375Z,76.25
2023-05-03T05:56:36.349Z,75.21
2023-05-03T05:57:36.860Z,75.08
2023-05-03T05:58:36.341Z,75.59
2023-05-03T05:59:36.333Z,75.18
2023-05-03T06:00:36.328Z,74.98
2023-05-03T06:01:36.311Z,76.31
2023-05-03T06:02:36.454Z,77.93
2023-05-03T06:03:36.307Z,78.41
2023-05-03T06:04:36.311Z,77.69
2023-05-03T06:05:36.456Z,78.34
2023-05-03T06:06:36.316Z,78.86
2023-05-03T06:07:36.284Z,78.00
2023-05-03T06:08:36.256Z,77.79
2023-05-03T06:09:36.264Z,77.45
2023-05-03T06:10:36.250Z,77.38
2023-05-03T06:11:36.263Z,77.58
2023-05-03T06:12:36.218Z,77.41
2023-05-03T06:13:36.280Z,77.51
2023-05-03T06:14:36.225Z,76.79
2023-05-03T06:15:36.247Z,76.90
2023-05-03T06:16:36.210Z,77.55
2023-05-03T06:17:36.247Z,76.04
2023-05-03T06:18:36.209Z,75.29
2023-05-03T06:19:36.184Z,76.28
2023-05-03T06:20:36.167Z,76.62
2023-05-03T06:21:37.154Z,75.32
2023-05-03T06:22:36.810Z,74.87
2023-05-03T06:23:36.193Z,76.45
2023-05-03T06:24:36.184Z,75.90
2023-05-03T06:25:36.200Z,76.14
2023-05-03T06:26:36.199Z,76.14
2023-05-03T06:27:36.125Z,76.73
2023-05-03T06:28:36.110Z,76.25
2023-05-03T06:29:36.158Z,75.87
2023-05-03T06:30:36.097Z,75.11
2023-05-03T06:31:36.169Z,75.66
2023-05-03T06:32:36.135Z,75.56
2023-05-03T06:33:36.070Z,76.45
2023-05-03T06:34:36.060Z,75.79
2023-05-03T06:35:36.056Z,74.57
2023-05-03T06:36:36.050Z,73.88
2023-05-03T06:37:36.079Z,73.44
2023-05-03T06:38:36.051Z,73.85
2023-05-03T06:39:36.025Z,72.99
2023-05-03T06:40:38.303Z,73.61
2023-05-03T06:41:36.007Z,73.44
2023-05-03T06:42:36.014Z,72.14
2023-05-03T06:43:36.008Z,71.42
2023-05-03T06:44:35.980Z,72.52
2023-05-03T06:45:35.986Z,73.57
2023-05-03T06:46:36.039Z,73.23
2023-05-03T06:47:36.007Z,72.07
2023-05-03T06:48:36.016Z,71.49
2023-05-03T06:49:35.957Z,70.61
2023-05-03T06:50:36.016Z,70.71
2023-05-03T06:51:36.739Z,71.94
2023-05-03T06:52:35.936Z,71.53
2023-05-03T06:53:35.985Z,70.26
2023-05-03T06:54:35.920Z,68.57
2023-05-03T06:55:35.898Z,68.53
2023-05-03T06:56:35.891Z,69.28
2023-05-03T06:57:35.897Z,68.12
2023-05-03T06:58:35.878Z,68.39
2023-05-03T06:59:35.868Z,68.87
2023-05-03T07:00:35.884Z,67.27
2023-05-03T07:01:35.911Z,67.68
2023-05-03T07:02:35.933Z,66.09
2023-05-03T07:03:35.881Z,65.14
2023-05-03T07:04:35.855Z,64.22
2023-05-03T07:05:35.862Z,65.11
2023-05-03T07:06:48.145Z,64.34
2023-05-03T07:07:37.823Z,64.44
2023-05-03T07:08:35.805Z,61.75
2023-05-03T07:09:42.795Z,63.71
2023-05-03T07:10:37.811Z,64.02
2023-05-03T07:11:35.783Z,65.06
2023-05-03T07:12:35.768Z,65.58
2023-05-03T07:13:35.764Z,63.45
2023-05-03T07:14:35.812Z,63.10
2023-05-03T07:15:35.796Z,63.31
2023-05-03T07:16:35.822Z,63.51
2023-05-03T07:17:35.789Z,62.87
2023-05-03T07:18:35.743Z,63.48
2023-05-03T07:19:35.721Z,62.32
2023-05-03T07:20:35.777Z,62.66
2023-05-03T07:21:35.755Z,62.43
2023-05-03T07:22:35.709Z,63.45
2023-05-03T07:23:35.707Z,60.47
2023-05-03T07:24:35.701Z,61.11
2023-05-03T07:25:35.690Z,60.95
2023-05-03T07:26:35.676Z,60.18
2023-05-03T07:27:35.660Z,60.41
2023-05-03T07:28:35.650Z,59.80
2023-05-03T07:29:36.651Z,60.08
2023-05-03T07:30:35.724Z,59.54
2023-05-03T07:31:35.638Z,58.86
2023-05-03T07:32:35.775Z,59.70
2023-05-03T07:33:35.673Z,59.37
2023-05-03T07:34:35.605Z,59.57
2023-05-03T07:35:35.637Z,60.05
2023-05-03T07:36:35.638Z,58.58
2023-05-03T07:37:35.646Z,58.58
2023-05-03T07:38:35.592Z,58.54
2023-05-03T07:39:35.600Z,57.25
2023-05-03T07:40:35.576Z,57.64
2023-05-03T07:41:35.557Z,57.46
2023-05-03T07:42:35.556Z,57.23
2023-05-03T07:43:35.599Z,57.05
2023-05-03T07:44:35.568Z,58.73
2023-05-03T07:45:35.576Z,58.53
2023-05-03T07:46:35.694Z,58.56
2023-05-03T07:47:35.549Z,59.01
2023-05-03T07:48:35.518Z,57.12
2023-05-03T07:49:35.569Z,57.07
2023-05-03T07:50:35.532Z,55.52
2023-05-03T07:51:35.531Z,55.76
2023-05-03T07:52:35.488Z,58.56
2023-05-03T07:53:35.487Z,57.00
2023-05-03T07:54:35.521Z,56.06
2023-05-03T07:55:35.476Z,56.16
2023-05-03T07:56:35.490Z,56.62
2023-05-03T07:57:35.477Z,57.95
2023-05-03T07:58:40.750Z,57.00
2023-05-03T07:59:37.436Z,55.58
2023-05-03T08:00:35.453Z,55.68
2023-05-03T08:01:35.457Z,55.27
2023-05-03T08:02:35.533Z,55.99
2023-05-03T08:03:35.627Z,55.53
2023-05-03T08:04:35.517Z,54.49
2023-05-03T08:05:35.407Z,55.55
2023-05-03T08:06:35.511Z,55.30
2023-05-03T08:07:35.369Z,54.99
2023-05-03T08:08:35.439Z,54.79
2023-05-03T08:09:35.381Z,54.77
2023-05-03T08:10:35.356Z,55.10
2023-05-03T08:11:35.337Z,53.96
2023-05-03T08:12:35.360Z,55.10
2023-05-03T08:13:35.367Z,53.83
2023-05-03T08:14:35.331Z,53.42
2023-05-03T08:15:35.372Z,52.97
2023-05-03T08:16:35.322Z,53.09
2023-05-03T08:17:35.356Z,52.92
2023-05-03T08:18:35.317Z,53.93
2023-05-03T08:19:35.317Z,54.87
2023-05-03T08:20:35.327Z,54.84
2023-05-03T08:21:35.264Z,55.12
2023-05-03T08:22:35.265Z,54.57
2023-05-03T08:23:35.274Z,53.91
2023-05-03T08:24:35.314Z,54.11
2023-05-03T08:25:35.261Z,54.33
2023-05-03T08:26:35.241Z,51.53
2023-05-03T08:27:35.246Z,53.04
2023-05-03T08:28:35.227Z,54.97
2023-05-03T08:29:35.222Z,54.03
2023-05-03T08:30:35.201Z,53.45
2023-05-03T08:31:35.337Z,53.75
2023-05-03T08:32:35.273Z,54.28
2023-05-03T08:33:35.169Z,54.08
2023-05-03T08:34:35.180Z,54.24
2023-05-03T08:35:35.154Z,53.45
2023-05-03T08:36:35.173Z,53.02
2023-05-03T08:37:35.174Z,52.18
2023-05-03T08:38:35.142Z,54.51
2023-05-03T08:39:35.154Z,55.73
2023-05-03T08:40:35.162Z,56.47
2023-05-03T08:41:35.189Z,55.02
2023-05-03T08:42:35.135Z,54.41
2023-05-03T08:43:35.104Z,54.41
2023-05-03T08:44:35.080Z,54.26
2023-05-03T08:45:35.092Z,54.97
2023-05-03T08:46:35.133Z,54.18
2023-05-03T08:47:35.117Z,53.96
2023-05-03T08:48:35.055Z,53.63
2023-05-03T08:49:35.074Z,52.99
2023-05-03T08:50:35.096Z,53.37
2023-05-03T08:51:35.061Z,52.15
2023-05-03T08:52:35.031Z,51.40
2023-05-03T08:53:35.045Z,50.82
2023-05-03T08:54:35.046Z,51.47
2023-05-03T08:55:35.034Z,53.34
2023-05-03T08:56:35.004Z,54.00
2023-05-03T08:57:34.992Z,53.47
2023-05-03T08:58:35.010Z,52.99
2023-05-03T08:59:34.978Z,50.95
2023-05-03T09:00:34.999Z,50.77
2023-05-03T09:01:34.983Z,51.50
2023-05-03T09:02:35.231Z,52.92
2023-05-03T09:03:35.144Z,52.84
2023-05-03T09:04:35.131Z,52.36
2023-05-03T09:05:34.984Z,50.67
2023-05-03T09:06:34.978Z,52.79
2023-05-03T09:07:34.944Z,51.35
2023-05-03T09:08:34.911Z,52.79
2023-05-03T09:09:34.941Z,52.54
2023-05-03T09:10:34.897Z,51.86
2023-05-03T09:11:34.890Z,51.25
2023-05-03T09:12:34.898Z,51.61
2023-05-03T09:13:34.902Z,49.82
2023-05-03T09:14:34.902Z,48.28
2023-05-03T09:15:34.866Z,48.08
2023-05-03T09:16:34.874Z,48.91
2023-05-03T09:17:34.870Z,50.78
2023-05-03T09:18:35.863Z,50.74
2023-05-03T09:19:34.867Z,53.07
2023-05-03T09:20:34.835Z,53.58
2023-05-03T09:22:08.261Z,52.84
2023-05-03T09:23:41.382Z,50.27
2023-05-03T09:24:41.427Z,50.90
2023-05-03T09:25:42.589Z,50.92
2023-05-03T09:26:42.543Z,51.10
2023-05-03T09:27:42.523Z,50.52
2023-05-03T09:28:42.496Z,51.83
2023-05-03T09:29:42.526Z,53.52
2023-05-03T09:30:42.454Z,55.30
2023-05-03T09:31:42.542Z,55.19
2023-05-03T09:32:42.608Z,53.72
2023-05-03T09:33:42.469Z,52.97
2023-05-03T09:34:42.447Z,51.98
2023-05-03T09:35:42.462Z,53.34
2023-05-03T09:36:44.000Z,52.19
2023-05-03T09:37:43.453Z,52.99
2023-05-03T09:38:43.025Z,52.86
2023-05-03T09:39:42.427Z,53.91
2023-05-03T09:40:42.407Z,53.14
2023-05-03T09:41:42.420Z,52.56
2023-05-03T09:42:42.427Z,52.76
2023-05-03T09:43:42.401Z,55.05
2023-05-03T09:44:42.415Z,55.10
2023-05-03T09:45:42.425Z,54.82
2023-05-03T09:46:42.412Z,54.31
2023-05-03T09:47:42.403Z,52.03
2023-05-03T09:48:42.359Z,52.39
2023-05-03T09:49:42.347Z,51.53
2023-05-03T09:50:42.340Z,51.23
2023-05-03T09:51:42.343Z,50.95
2023-05-03T09:52:42.396Z,51.57
2023-05-03T09:53:42.336Z,52.76
2023-05-03T09:54:42.427Z,51.05
2023-05-03T09:55:42.364Z,50.84
2023-05-03T09:56:42.310Z,49.18
2023-05-03T09:57:42.288Z,50.90
2023-05-03T09:58:42.297Z,51.62
2023-05-03T09:59:42.262Z,51.70
2023-05-03T10:00:42.255Z,53.47
2023-05-03T10:01:42.309Z,51.55
2023-05-03T10:02:42.292Z,51.50
2023-05-03T10:03:42.269Z,51.28
2023-05-03T10:04:42.234Z,50.82
2023-05-03T10:05:42.243Z,50.27
2023-05-03T10:06:42.296Z,50.95
2023-05-03T10:07:42.268Z,51.73
2023-05-03T10:08:42.224Z,51.03
2023-05-03T10:09:42.244Z,50.99
2023-05-03T10:10:42.182Z,51.50
2023-05-03T10:11:42.216Z,52.39
2023-05-03T10:12:42.186Z,50.82
2023-05-03T10:13:42.199Z,51.10
2023-05-03T10:14:42.213Z,50.47
2023-05-03T10:15:42.164Z,49.89
2023-05-03T10:16:42.158Z,49.16
2023-05-03T10:18:43.144Z,49.08
2023-05-03T10:19:42.155Z,50.29
2023-05-03T10:20:42.149Z,48.90
2023-05-03T10:21:42.102Z,48.93
2023-05-03T10:22:42.090Z,50.79
2023-05-03T10:23:42.143Z,51.35
2023-05-03T10:24:42.140Z,50.70
2023-05-03T10:25:42.126Z,49.96
2023-05-03T10:26:42.086Z,50.47
2023-05-03T10:27:42.107Z,50.14
2023-05-03T10:28:42.084Z,51.30
2023-05-03T10:29:42.066Z,50.87
2023-05-03T10:30:42.108Z,50.32
2023-05-03T10:31:42.135Z,48.06
2023-05-03T10:32:42.099Z,47.15
2023-05-03T10:33:42.034Z,48.06
2023-05-03T10:34:42.772Z,48.72
2023-05-03T10:35:42.050Z,48.90
2023-05-03T10:36:49.328Z,48.39
2023-05-03T10:37:44.021Z,47.51
2023-05-03T10:38:41.990Z,48.84
2023-05-03T10:39:41.986Z,48.53
2023-05-03T10:40:42.051Z,48.36
2023-05-03T10:41:42.064Z,51.07
2023-05-03T10:42:41.959Z,50.62
2023-05-03T10:43:41.957Z,49.18
2023-05-03T10:44:42.042Z,47.54
2023-05-03T10:45:41.947Z,47.95
2023-05-03T10:46:42.059Z,47.89
2023-05-03T10:47:42.041Z,48.06
2023-05-03T10:48:41.938Z,49.14
2023-05-03T10:49:41.913Z,50.92
2023-05-03T10:50:41.959Z,50.97
2023-05-03T10:51:41.943Z,50.04
2023-05-03T10:52:41.921Z,49.69
2023-05-03T10:53:41.869Z,48.98
2023-05-03T10:54:41.877Z,47.31
2023-05-03T10:55:41.854Z,50.13
2023-05-03T10:56:41.866Z,51.62
2023-05-03T10:57:41.862Z,50.57
2023-05-03T10:58:41.815Z,50.82
2023-05-03T10:59:41.823Z,48.85
2023-05-03T11:00:41.806Z,49.04
2023-05-03T11:01:41.847Z,48.32
2023-05-03T11:02:41.807Z,50.92
2023-05-03T11:03:41.825Z,50.56
2023-05-03T11:04:41.881Z,51.62
2023-05-03T11:05:41.816Z,51.02
2023-05-03T11:06:41.869Z,51.65
2023-05-03T11:07:41.755Z,49.02
2023-05-03T11:08:41.789Z,50.34
2023-05-03T11:09:41.740Z,49.30
2023-05-03T11:10:41.762Z,51.15
2023-05-03T11:11:41.716Z,48.02
2023-05-03T11:12:42.719Z,48.32
2023-05-03T11:13:41.741Z,48.50
2023-05-03T11:14:41.717Z,47.26
2023-05-03T11:15:41.701Z,46.25
2023-05-03T11:16:41.793Z,46.36
2023-05-03T11:17:41.709Z,48.37
2023-05-03T11:18:41.650Z,48.17
2023-05-03T11:19:42.705Z,49.10
2023-05-03T11:20:42.691Z,48.46
2023-05-03T11:21:42.564Z,47.07
2023-05-03T11:22:41.652Z,50.37
2023-05-03T11:23:41.685Z,49.10
2023-05-03T11:24:41.657Z,48.47
2023-05-03T11:25:41.618Z,48.37
2023-05-03T11:26:41.621Z,48.34
2023-05-03T11:27:41.593Z,47.33
2023-05-03T11:28:41.585Z,48.82
2023-05-03T11:29:41.689Z,49.19
2023-05-03T11:30:41.562Z,48.96
2023-05-03T11:31:41.581Z,47.54
2023-05-03T11:32:41.593Z,48.07
2023-05-03T11:33:41.554Z,47.44
2023-05-03T11:34:41.570Z,46.95
2023-05-03T11:35:41.540Z,47.95
2023-05-03T11:36:41.578Z,49.19
2023-05-03T11:37:41.512Z,48.08
2023-05-03T11:38:41.502Z,47.39
2023-05-03T11:39:41.537Z,49.34
2023-05-03T11:40:41.498Z,47.25
2023-05-03T11:41:41.502Z,48.42
2023-05-03T11:42:41.528Z,47.16
2023-05-03T11:43:41.485Z,46.23
2023-05-03T11:44:41.482Z,47.52
2023-05-03T11:45:41.718Z,46.43
2023-05-03T11:46:41.586Z,47.24
2023-05-03T11:47:41.539Z,46.43
2023-05-03T11:48:41.486Z,46.64
2023-05-03T11:49:41.434Z,46.50
2023-05-03T11:50:41.438Z,48.14
2023-05-03T11:51:41.398Z,47.78
2023-05-03T11:52:41.468Z,49.17
2023-05-03T11:53:41.401Z,48.26
2023-05-03T11:54:41.388Z,48.18
2023-05-03T11:55:41.375Z,48.67
2023-05-03T11:56:41.414Z,49.01
2023-05-03T11:57:41.396Z,47.87
2023-05-03T11:58:41.432Z,46.84
2023-05-03T11:59:41.377Z,46.92
2023-05-03T12:00:41.357Z,48.05
2023-05-03T12:01:41.478Z,48.88
2023-05-03T12:02:41.571Z,45.59
2023-05-03T12:03:41.500Z,46.77
2023-05-03T12:04:42.107Z,47.27
2023-05-03T12:05:41.690Z,47.98
2023-05-03T12:06:43.724Z,47.99
2023-05-03T12:07:44.070Z,46.96
2023-05-03T12:08:43.244Z,46.58
2023-05-03T12:09:45.073Z,47.14
2023-05-03T12:10:43.148Z,46.43
2023-05-03T12:11:43.362Z,45.83
2023-05-03T12:12:44.082Z,45.93
2023-05-03T12:13:44.223Z,46.53
2023-05-03T12:14:41.916Z,46.92
2023-05-03T12:15:41.877Z,46.47
2023-05-03T12:16:41.342Z,44.51
2023-05-03T12:17:44.111Z,45.56
2023-05-03T12:18:42.373Z,45.16
2023-05-03T12:19:43.581Z,44.35
2023-05-03T12:21:43.539Z,45.30
2023-05-03T12:22:41.492Z,44.78
2023-05-03T12:23:41.280Z,45.38
2023-05-03T12:24:41.481Z,44.67
2023-05-03T12:25:44.449Z,42.70
2023-05-03T12:26:42.367Z,43.00
2023-05-03T12:27:41.240Z,41.87
2023-05-03T12:28:41.273Z,43.59
2023-05-03T12:29:41.875Z,44.87
2023-05-03T12:30:41.379Z,43.46
2023-05-03T12:31:43.929Z,42.03
2023-05-03T12:32:44.039Z,43.44
2023-05-03T12:33:43.529Z,42.13
2023-05-03T12:34:42.174Z,41.87
2023-05-03T12:35:41.552Z,42.72
2023-05-03T12:36:44.333Z,43.75
2023-05-03T12:37:43.663Z,45.39
2023-05-03T12:38:43.684Z,45.95
2023-05-03T12:39:45.587Z,45.14
2023-05-03T12:40:43.642Z,43.91
2023-05-03T12:42:06.042Z,44.54
2023-05-03T12:42:43.574Z,46.12
2023-05-03T12:43:43.622Z,46.92
2023-05-03T12:44:43.308Z,47.61
2023-05-03T12:45:46.870Z,46.98
2023-05-03T12:46:45.253Z,46.28
2023-05-03T12:47:44.461Z,46.05
2023-05-03T12:48:46.130Z,45.14
2023-05-03T12:49:45.662Z,44.66
2023-05-03T12:50:45.257Z,46.07
2023-05-03T12:51:42.945Z,45.29
2023-05-03T12:53:45.471Z,46.30
2023-05-03T12:54:42.466Z,43.69
2023-05-03T12:55:43.931Z,44.20
2023-05-03T12:56:42.405Z,46.17
2023-05-03T12:57:43.149Z,49.01
2023-05-03T12:58:58.399Z,47.72
2023-05-03T12:59:43.640Z,47.70
2023-05-03T13:03:44.624Z,45.24
2023-05-03T13:04:57.679Z,45.89
2023-05-03T13:05:43.368Z,47.09
2023-05-03T13:06:43.208Z,46.14
2023-05-03T13:07:43.361Z,45.98
2023-05-03T13:08:49.366Z,47.34
2023-05-03T13:10:42.946Z,44.70
2023-05-03T13:11:40.985Z,44.90
2023-05-03T13:12:40.826Z,44.87
2023-05-03T13:13:40.825Z,46.61
2023-05-03T13:14:40.919Z,44.70
2023-05-03T13:15:40.791Z,43.66